createdAt,value
2017-11-24T00:00:26.957Z,77
2017-11-24T00:01:45.695Z,75
2017-11-24T00:03:04.477Z,75
2017-11-24T00:04:23.663Z,77
2017-11-24T00:05:42.254Z,77
2017-11-24T00:07:00.847Z,75
2017-11-24T00:08:19.701Z,75
2017-11-24T00:09:38.759Z,77
2017-11-24T00:10:57.367Z,77
2017-11-24T00:12:16.157Z,74
2017-11-24T00:13:34.854Z,75
2017-11-24T00:14:53.839Z,77
2017-11-24T00:16:12.461Z,76
2017-11-24T00:17:31.019Z,74
2017-11-24T00:18:49.913Z,75
2017-11-24T00:20:08.879Z,77
2017-11-24T00:21:27.884Z,76
2017-11-24T00:22:46.580Z,75
2017-11-24T00:24:05.322Z,75
2017-11-24T00:25:24.460Z,77
2017-11-24T00:26:43.190Z,76
2017-11-24T00:28:02.974Z,75
2017-11-24T00:29:21.679Z,76
2017-11-24T00:30:40.765Z,75
2017-11-24T00:31:59.622Z,77
2017-11-24T00:33:18.403Z,76
2017-11-24T00:34:37.098Z,73
2017-11-24T00:35:56.077Z,75
2017-11-24T00:37:14.740Z,77
2017-11-24T00:38:33.517Z,76
2017-11-24T00:39:52.339Z,76
2017-11-24T00:41:11.358Z,75
2017-11-24T00:42:29.998Z,77
2017-11-24T00:43:48.966Z,76
2017-11-24T00:45:07.702Z,74
2017-11-24T00:46:26.755Z,75
2017-11-24T00:47:45.542Z,76
2017-11-24T00:49:04.437Z,76
2017-11-24T00:50:23.162Z,74
2017-11-24T00:51:42.160Z,76
2017-11-24T00:53:00.734Z,76
2017-11-24T00:54:19.282Z,76
2017-11-24T00:55:37.975Z,73
2017-11-24T00:56:57.120Z,76
2017-11-24T00:58:16.000Z,76
2017-11-24T00:59:34.790Z,76
2017-11-24T01:00:53.698Z,74
2017-11-24T01:02:12.803Z,74
2017-11-24T01:03:31.560Z,76
2017-11-24T01:04:50.255Z,76
2017-11-24T01:06:08.936Z,74
2017-11-24T01:07:28.165Z,75
2017-11-24T01:08:46.844Z,76
2017-11-24T01:10:05.517Z,76
2017-11-24T01:11:24.113Z,74
2017-11-24T01:12:43.157Z,74
2017-11-24T01:14:01.874Z,76
2017-11-24T01:15:20.712Z,76
2017-11-24T01:16:39.395Z,74
2017-11-24T01:17:58.433Z,74
2017-11-24T01:19:17.057Z,76
2017-11-24T01:20:35.674Z,75
2017-11-24T01:21:54.501Z,75
2017-11-24T01:23:13.459Z,75
2017-11-24T01:24:32.120Z,76
2017-11-24T01:25:50.786Z,75
2017-11-24T01:27:09.393Z,73
2017-11-24T01:28:28.441Z,73
2017-11-24T01:29:47.145Z,75
2017-11-24T01:31:05.902Z,74
2017-11-24T01:32:24.723Z,73
2017-11-24T01:33:43.815Z,75
2017-11-24T01:35:02.704Z,75
2017-11-24T01:36:22.386Z,75
2017-11-24T01:37:41.090Z,75
2017-11-24T01:39:00.052Z,73
2017-11-24T01:40:18.757Z,75
2017-11-24T01:41:37.373Z,75
2017-11-24T01:42:55.939Z,75
2017-11-24T01:44:14.939Z,73
2017-11-24T01:45:33.535Z,75
2017-11-24T01:46:52.337Z,75
2017-11-24T01:48:11.182Z,73
2017-11-24T01:49:30.270Z,73
2017-11-24T01:50:48.877Z,75
2017-11-24T01:52:07.655Z,74
2017-11-24T01:53:26.238Z,73
2017-11-24T01:54:45.215Z,73
2017-11-24T01:56:03.918Z,75
2017-11-24T01:57:23.997Z,75
2017-11-24T01:58:42.638Z,75
2017-11-24T02:00:02.637Z,73
2017-11-24T02:01:21.320Z,73
2017-11-24T02:02:40.053Z,75
2017-11-24T02:03:58.896Z,75
2017-11-24T02:05:17.878Z,75
2017-11-24T02:06:36.675Z,73
2017-11-24T02:07:55.439Z,72
2017-11-24T02:09:14.119Z,75
2017-11-24T02:10:33.199Z,75
2017-11-24T02:11:51.855Z,72
2017-11-24T02:13:10.635Z,73
2017-11-24T02:14:29.258Z,73
2017-11-24T02:15:48.241Z,75
2017-11-24T02:17:06.863Z,73
2017-11-24T02:18:25.599Z,75
2017-11-24T02:19:44.293Z,75
2017-11-24T02:21:03.337Z,73
2017-11-24T02:22:21.938Z,73
2017-11-24T02:23:40.829Z,73
2017-11-24T02:24:59.559Z,75
2017-11-24T02:26:18.982Z,73
2017-11-24T02:27:37.683Z,73
2017-11-24T02:28:56.417Z,73
2017-11-24T02:30:14.993Z,73
2017-11-24T02:31:34.012Z,74
2017-11-24T02:32:52.581Z,73
2017-11-24T02:34:11.196Z,74
2017-11-24T02:35:29.818Z,73
2017-11-24T02:36:48.939Z,74
2017-11-24T02:38:07.536Z,72
2017-11-24T02:39:26.281Z,74
2017-11-24T02:40:44.920Z,74
2017-11-24T02:42:03.932Z,72
2017-11-24T02:43:22.575Z,72
2017-11-24T02:44:41.496Z,74
2017-11-24T02:46:00.156Z,74
2017-11-24T02:47:19.540Z,72
2017-11-24T02:48:38.441Z,72
2017-11-24T02:49:57.191Z,74
2017-11-24T02:51:15.859Z,74
2017-11-24T02:52:34.939Z,72
2017-11-24T02:53:53.560Z,72
2017-11-24T02:55:12.134Z,74
2017-11-24T02:56:30.759Z,73
2017-11-24T02:57:49.813Z,72
2017-11-24T02:59:08.497Z,71
2017-11-24T03:00:27.213Z,74
2017-11-24T03:01:45.839Z,73
2017-11-24T03:03:05.120Z,73
2017-11-24T03:04:23.895Z,72
2017-11-24T03:05:42.757Z,74
2017-11-24T03:07:01.392Z,73
2017-11-24T03:08:20.495Z,70
2017-11-24T03:09:39.097Z,72
2017-11-24T03:10:57.755Z,74
2017-11-24T03:12:16.374Z,73
2017-11-24T03:13:35.356Z,71
2017-11-24T03:14:54.078Z,71
2017-11-24T03:16:12.662Z,73
2017-11-24T03:17:31.505Z,73
2017-11-24T03:18:50.653Z,73
2017-11-24T03:20:09.473Z,71
2017-11-24T03:21:28.302Z,73
2017-11-24T03:22:46.998Z,73
2017-11-24T03:24:05.917Z,71
2017-11-24T03:25:24.522Z,71
2017-11-24T03:26:43.221Z,73
2017-11-24T03:28:01.858Z,73
2017-11-24T03:29:20.916Z,73
2017-11-24T03:30:39.516Z,70
2017-11-24T03:31:58.501Z,73
2017-11-24T03:33:17.147Z,73
2017-11-24T03:34:36.259Z,73
2017-11-24T03:35:54.939Z,71
2017-11-24T03:37:13.714Z,73
2017-11-24T03:38:32.337Z,73
2017-11-24T03:39:51.299Z,70
2017-11-24T03:41:09.887Z,73
2017-11-24T03:42:28.499Z,73
2017-11-24T03:43:47.254Z,71
2017-11-24T03:45:06.223Z,70
2017-11-24T03:46:24.926Z,73
2017-11-24T03:47:43.999Z,73
2017-11-24T03:49:02.737Z,72
2017-11-24T03:50:21.760Z,70
2017-11-24T03:51:40.356Z,73
2017-11-24T03:52:59.220Z,73
2017-11-24T03:54:17.880Z,73
2017-11-24T03:55:36.856Z,70
2017-11-24T03:56:55.479Z,73
2017-11-24T03:58:14.078Z,73
2017-11-24T03:59:32.765Z,70
2017-11-24T04:00:51.816Z,72
2017-11-24T04:02:10.500Z,73
2017-11-24T04:03:29.242Z,71
2017-11-24T04:04:48.095Z,70
2017-11-24T04:06:07.226Z,70
2017-11-24T04:07:25.859Z,73
2017-11-24T04:08:44.559Z,72
2017-11-24T04:10:03.236Z,70
2017-11-24T04:11:22.282Z,72
2017-11-24T04:12:40.925Z,73
2017-11-24T04:13:59.622Z,72
2017-11-24T04:15:18.205Z,70
2017-11-24T04:16:37.143Z,70
2017-11-24T04:17:55.961Z,72
2017-11-24T04:19:14.580Z,72
2017-11-24T04:20:33.172Z,70
2017-11-24T04:21:52.241Z,72
2017-11-24T04:23:10.797Z,71
2017-11-24T04:24:29.419Z,70
2017-11-24T04:25:48.171Z,70
2017-11-24T04:27:07.321Z,72
2017-11-24T04:28:26.279Z,72
2017-11-24T04:29:44.880Z,72
2017-11-24T04:31:03.598Z,70
2017-11-24T04:32:22.578Z,72
2017-11-24T04:33:41.219Z,72
2017-11-24T04:34:59.975Z,71
2017-11-24T04:36:18.678Z,70
2017-11-24T04:37:37.825Z,72
2017-11-24T04:38:56.531Z,71
2017-11-24T04:40:15.277Z,71
2017-11-24T04:41:33.939Z,71
2017-11-24T04:42:53.074Z,71
2017-11-24T04:44:11.752Z,71
2017-11-24T04:45:30.546Z,71
2017-11-24T04:46:49.303Z,69
2017-11-24T04:48:08.525Z,69
2017-11-24T04:49:27.278Z,70
2017-11-24T04:50:46.086Z,71
2017-11-24T04:52:04.898Z,69
2017-11-24T04:53:24.089Z,71
2017-11-24T04:54:42.820Z,71
2017-11-24T04:56:01.703Z,71
2017-11-24T04:57:20.555Z,70
2017-11-24T04:58:39.626Z,69
2017-11-24T04:59:58.503Z,71
2017-11-24T05:01:17.194Z,71
2017-11-24T05:02:35.896Z,69
2017-11-24T05:03:54.983Z,69
2017-11-24T05:05:13.592Z,71
2017-11-24T05:06:32.181Z,70
2017-11-24T05:07:51.166Z,69
2017-11-24T05:09:10.198Z,69
2017-11-24T05:10:28.837Z,71
2017-11-24T05:11:47.690Z,70
2017-11-24T05:13:06.563Z,69
2017-11-24T05:14:25.717Z,69
2017-11-24T05:15:44.540Z,70
2017-11-24T05:17:03.359Z,70
2017-11-24T05:18:22.139Z,70
2017-11-24T05:19:41.194Z,68
2017-11-24T05:20:59.900Z,71
2017-11-24T05:22:18.757Z,70
2017-11-24T05:23:37.468Z,70
2017-11-24T05:24:56.440Z,68
2017-11-24T05:26:15.042Z,70
2017-11-24T05:27:33.721Z,70
2017-11-24T05:28:52.584Z,70
2017-11-24T05:30:11.839Z,70
2017-11-24T05:31:30.759Z,67
2017-11-24T05:32:49.419Z,70
2017-11-24T05:34:08.082Z,70
2017-11-24T05:35:27.237Z,68
2017-11-24T05:36:46.237Z,68
2017-11-24T05:38:04.897Z,70
2017-11-24T05:39:23.578Z,70
2017-11-24T05:40:44.460Z,70
2017-11-24T05:42:03.094Z,68
2017-11-24T05:43:21.704Z,67
2017-11-24T05:44:40.342Z,70
2017-11-24T05:45:59.538Z,68
2017-11-24T05:47:18.334Z,68
2017-11-24T05:48:36.916Z,68
2017-11-24T05:49:55.575Z,69
2017-11-24T05:51:14.518Z,70
2017-11-24T05:52:33.115Z,68
2017-11-24T05:53:51.697Z,68
2017-11-24T05:55:10.360Z,70
2017-11-24T05:56:29.481Z,68
2017-11-24T05:57:48.178Z,68
2017-11-24T05:59:08.172Z,70
2017-11-24T06:00:26.861Z,70
2017-11-24T06:01:45.917Z,69
2017-11-24T06:03:04.760Z,69
2017-11-24T06:04:23.682Z,68
2017-11-24T06:05:42.461Z,68
2017-11-24T06:07:01.575Z,70
2017-11-24T06:08:20.269Z,69
2017-11-24T06:09:39.236Z,69
2017-11-24T06:10:58.018Z,68
2017-11-24T06:12:17.178Z,70
2017-11-24T06:13:36.098Z,69
2017-11-24T06:14:54.741Z,67
2017-11-24T06:16:13.574Z,69
2017-11-24T06:17:32.763Z,69
2017-11-24T06:18:51.454Z,69
2017-11-24T06:20:10.216Z,69
2017-11-24T06:21:28.960Z,69
2017-11-24T06:22:48.143Z,69
2017-11-24T06:24:06.882Z,69
2017-11-24T06:25:25.838Z,68
2017-11-24T06:26:44.541Z,67
2017-11-24T06:28:03.723Z,69
2017-11-24T06:29:22.519Z,69
2017-11-24T06:30:41.242Z,69
2017-11-24T06:32:01.004Z,68
2017-11-24T06:33:20.093Z,67
2017-11-24T06:34:38.853Z,68
2017-11-24T06:35:57.753Z,69
2017-11-24T06:37:16.498Z,68
2017-11-24T06:38:35.613Z,68
2017-11-24T06:39:54.451Z,67
2017-11-24T06:41:13.396Z,69
2017-11-24T06:42:32.079Z,69
2017-11-24T06:43:51.157Z,66
2017-11-24T06:45:09.761Z,66
2017-11-24T06:46:28.415Z,69
2017-11-24T06:47:47.079Z,68
2017-11-24T06:49:06.259Z,66
2017-11-24T06:50:25.035Z,68
2017-11-24T06:51:43.673Z,68
2017-11-24T06:53:02.259Z,68
2017-11-24T06:54:21.497Z,68
2017-11-24T06:55:40.295Z,68
2017-11-24T06:56:58.980Z,68
2017-11-24T06:58:17.651Z,68
2017-11-24T06:59:36.742Z,68
2017-11-24T07:00:55.315Z,66
2017-11-24T07:02:14.016Z,68
2017-11-24T07:03:32.935Z,68
2017-11-24T07:04:51.900Z,66
2017-11-24T07:06:10.698Z,66
2017-11-24T07:07:29.838Z,68
2017-11-24T07:08:48.638Z,68
2017-11-24T07:10:07.658Z,66
2017-11-24T07:11:26.417Z,66
2017-11-24T07:12:44.978Z,68
2017-11-24T07:14:03.780Z,68
2017-11-24T07:15:22.900Z,65
2017-11-24T07:16:41.517Z,66
2017-11-24T07:18:00.239Z,68
2017-11-24T07:19:18.953Z,67
2017-11-24T07:20:38.184Z,68
2017-11-24T07:21:57.061Z,66
2017-11-24T07:23:15.804Z,68
2017-11-24T07:24:34.521Z,66
2017-11-24T07:25:53.509Z,65
2017-11-24T07:27:12.145Z,66
2017-11-24T07:28:30.716Z,68
2017-11-24T07:29:49.322Z,68
2017-11-24T07:31:08.376Z,66
2017-11-24T07:32:27.253Z,65
2017-11-24T07:33:46.082Z,68
2017-11-24T07:35:04.817Z,68
2017-11-24T07:36:23.954Z,66
2017-11-24T07:37:42.645Z,66
2017-11-24T07:39:01.503Z,68
2017-11-24T07:40:20.664Z,66
2017-11-24T07:41:39.576Z,67
2017-11-24T07:42:58.220Z,66
2017-11-24T07:44:16.941Z,68
2017-11-24T07:45:35.683Z,68
2017-11-24T07:46:54.797Z,67
2017-11-24T07:48:13.498Z,65
2017-11-24T07:49:32.240Z,67
2017-11-24T07:50:50.939Z,67
2017-11-24T07:52:10.154Z,67
2017-11-24T07:53:28.793Z,65
2017-11-24T07:54:47.477Z,67
2017-11-24T07:56:06.377Z,66
2017-11-24T07:57:25.610Z,67
2017-11-24T07:58:46.935Z,66
2017-11-24T08:00:06.184Z,67
2017-11-24T08:01:28.961Z,67
2017-11-24T08:02:53.458Z,67
2017-11-24T08:05:44.206Z,66
2017-11-24T08:07:09.403Z,67
2017-11-24T08:09:17.721Z,67
2017-11-24T08:10:37.379Z,67
2017-11-24T08:12:56.253Z,65
2017-11-24T08:14:21.189Z,65
2017-11-24T08:15:50.532Z,66
2017-11-24T08:17:22.415Z,65
2017-11-24T08:18:48.455Z,64
2017-11-24T08:20:11.468Z,65
2017-11-24T08:21:34.956Z,67
2017-11-24T08:22:56.472Z,65
2017-11-24T08:24:19.795Z,66
2017-11-24T08:25:44.220Z,66
2017-11-24T08:27:10.532Z,65
2017-11-24T08:28:34.296Z,66
2017-11-24T08:29:55.196Z,66
2017-11-24T08:31:17.573Z,65
2017-11-24T08:32:38.876Z,66
2017-11-24T08:34:01.118Z,64
2017-11-24T08:35:25.932Z,64
2017-11-24T08:36:51.055Z,66
2017-11-24T08:38:12.855Z,64
2017-11-24T08:39:35.049Z,66
2017-11-24T08:40:59.012Z,66
2017-11-24T08:42:22.661Z,66
2017-11-24T08:45:08.389Z,64
2017-11-24T08:46:36.093Z,65
2017-11-24T08:48:04.179Z,66
2017-11-24T08:49:31.878Z,66
2017-11-24T08:51:04.010Z,66
2017-11-24T08:52:29.511Z,66
2017-11-24T08:53:53.195Z,64
2017-11-24T08:55:16.174Z,64
2017-11-24T08:56:42.719Z,64
2017-11-24T08:58:10.576Z,66
2017-11-24T08:59:43.358Z,66
2017-11-24T09:02:39.962Z,66
2017-11-24T09:04:13.974Z,66
2017-11-24T09:05:42.516Z,66
2017-11-24T09:07:18.789Z,64
2017-11-24T09:09:01.259Z,65
2017-11-24T09:10:22.073Z,66
2017-11-24T09:11:49.096Z,64
2017-11-24T09:14:48.674Z,66
2017-11-24T09:16:11.915Z,66
2017-11-24T09:17:31.935Z,66
2017-11-24T09:18:52.390Z,66
2017-11-24T09:20:12.698Z,66
2017-11-24T09:21:32.054Z,66
2017-11-24T09:22:51.985Z,66
2017-11-24T09:24:11.790Z,66
2017-11-24T09:25:32.535Z,66
2017-11-24T09:26:53.358Z,64
2017-11-24T09:28:14.265Z,64
2017-11-24T09:29:34.188Z,64
2017-11-24T09:30:54.398Z,64
2017-11-24T09:32:14.879Z,64
2017-11-24T09:33:35.389Z,64
2017-11-24T09:34:55.074Z,64
2017-11-24T09:36:15.497Z,64
2017-11-24T09:37:34.713Z,64
2017-11-24T09:38:54.115Z,64
2017-11-24T09:40:13.389Z,66
2017-11-24T09:41:33.033Z,66
2017-11-24T09:42:52.896Z,66
2017-11-24T09:44:12.695Z,66
2017-11-24T09:45:32.531Z,66
2017-11-24T09:46:52.893Z,64
2017-11-24T09:48:14.463Z,66
2017-11-24T09:49:34.538Z,64
2017-11-24T09:50:53.716Z,66
2017-11-24T09:52:13.995Z,66
2017-11-24T09:53:33.994Z,64
2017-11-24T09:54:54.269Z,65
2017-11-24T09:56:14.151Z,66
2017-11-24T09:57:34.309Z,65
2017-11-24T09:58:53.557Z,65
2017-11-24T10:00:13.453Z,65
2017-11-24T10:01:33.082Z,65
2017-11-24T10:02:53.523Z,65
2017-11-24T10:04:27.455Z,64
2017-11-24T10:05:55.433Z,64
2017-11-24T10:07:15.402Z,63
2017-11-24T10:08:36.015Z,63
2017-11-24T10:10:08.626Z,65
2017-11-24T10:11:39.213Z,65
2017-11-24T10:13:09.293Z,63
2017-11-24T10:14:39.772Z,73
2017-11-24T10:17:10.003Z,72
2017-11-24T10:18:26.241Z,73
2017-11-24T10:19:47.763Z,73
2017-11-24T10:21:15.324Z,72
2017-11-24T10:22:39.047Z,73
2017-11-24T10:23:59.862Z,73
2017-11-24T10:25:42.941Z,72
2017-11-24T10:29:17.382Z,68
2017-11-24T11:02:46.342Z,74
2017-11-24T11:18:16.125Z,75
2017-11-24T12:02:01.564Z,97
2017-11-24T13:56:31.505Z,97
2017-11-24T14:11:53.821Z,97
2017-11-24T14:27:15.961Z,96
2017-11-24T14:42:41.455Z,95
2017-11-24T14:58:05.799Z,94
2017-11-24T15:13:30.768Z,93
2017-11-24T15:28:57.002Z,93
2017-11-24T15:59:49.637Z,93
2017-11-24T16:15:15.881Z,91
2017-11-24T16:30:42.757Z,93
2017-11-24T16:46:14.544Z,90
2017-11-24T17:01:45.145Z,92
2017-11-24T17:17:11.800Z,89
2017-11-24T17:48:12.117Z,88
2017-11-24T18:03:38.715Z,88
2017-11-24T18:19:09.734Z,89
2017-11-24T18:34:42.133Z,88
2017-11-24T18:50:15.982Z,87
2017-11-24T19:05:38.860Z,88
2017-11-24T19:21:02.353Z,87
2017-11-24T19:36:28.676Z,85
2017-11-24T19:51:53.079Z,85
2017-11-24T20:07:18.285Z,85
2017-11-24T20:22:42.953Z,82
2017-11-24T20:38:09.873Z,84
2017-11-24T20:53:34.243Z,84
2017-11-24T21:08:58.598Z,86
2017-11-24T21:24:23.335Z,85
2017-11-24T21:39:46.624Z,83
2017-11-24T21:55:09.055Z,84
2017-11-24T22:10:30.898Z,84
2017-11-24T22:25:53.662Z,81
2017-11-24T22:41:15.854Z,83
2017-11-24T22:56:38.317Z,84
2017-11-24T23:11:59.782Z,81
2017-11-24T23:27:21.645Z,81
2017-11-24T23:42:43.795Z,81
2017-11-24T23:58:05.258Z,83
